Baxterville, Colorado
Current Conditions -  °F | °C
As of 1:30 AM on Friday 24 Oct 2014 (Local Time) from KRCV Reporting Station
Clear Clear  
Wind Chill: 36°   Ceiling: Unl
Heat Index: 43°   Visibility: 10mi
Dew Point: 31°   Wind: 15mph
Humidity: 63%   Direction: 280°W
Pressure: 30.41"   Gusts: NA
Location:  37.6359°N, 106.449°W
Report Text: KRCV 240730Z AUTO 28013KT 10SM CLR 06/00 A3041 RMK AO2 T00611005
Loading
Personal Weather Stations






























Interactive Weather Map
Tropical Storm Tracking
New forecast layout! Learn more

10-Day Weather Forecast

Advertisements
Track Severe Weather on mobile